Time;durP1;ratioP1;P1;durP2;ratioP2;P2;SDS_P1;SDS_P2;PMS_P1;PMS_P2;Temp;Humidity;BMP_temperature;BMP_pressure;BME280_temperature;BME280_humidity;BME280_pressure;Samples;Min_cycle;Max_cycle;Signal;HPM_P1;HPM_P2
2022/11/27 02:13:04;;;;;;;24.95;9.27;;;5.50;99.90;;;;;;5000533;28;1387048;-80
2022/11/27 02:16:04;;;;;;;25.73;7.35;;;5.50;99.90;;;;;;5038109;28;20053;-80
2022/11/27 02:19:24;;;;;;;23.80;7.95;;;5.50;99.90;;;;;;5053819;28;20056;-80
2022/11/27 02:22:45;;;;;;;24.25;7.70;;;5.50;99.90;;;;;;5053953;28;20057;-79
2022/11/27 02:25:47;;;;;;;27.52;10.35;;;5.50;99.90;;;;;;5036832;28;20107;-79
2022/11/27 02:28:55;;;;;;;23.63;8.15;;;5.60;99.90;;;;;;5054407;28;20061;-80
2022/11/27 02:31:56;;;;;;;24.40;8.45;;;5.60;99.90;;;;;;5034305;28;20116;-81
2022/11/27 02:34:52;;;;;;;19.85;8.05;;;5.60;99.90;;;;;;5036607;28;20080;-80
2022/11/27 02:38:19;;;;;;;25.77;8.25;;;5.60;99.90;;;;;;5034450;28;20057;-80
2022/11/27 02:41:11;;;;;;;21.73;8.02;;;5.60;99.90;;;;;;5004488;28;20052;-79
2022/11/27 02:43:59;;;;;;;28.85;7.90;;;5.60;99.90;;;;;;5035808;28;20395;-79
2022/11/27 02:46:47;;;;;;;23.42;9.02;;;5.60;99.90;;;;;;5039731;28;20135;-80
2022/11/27 02:49:34;;;;;;;17.90;7.38;;;5.60;99.90;;;;;;5052702;28;20056;-80
2022/11/27 02:52:21;;;;;;;26.65;8.02;;;5.70;99.90;;;;;;5035605;28;20056;-79
2022/11/27 02:55:12;;;;;;;23.92;10.27;;;5.70;99.90;;;;;;5036365;28;20091;-79
2022/11/27 02:58:01;;;;;;;25.25;6.93;;;5.70;99.90;;;;;;5052449;28;20056;-79
2022/11/27 03:00:47;;;;;;;20.38;7.20;;;5.70;99.90;;;;;;5052627;28;20056;-79
2022/11/27 03:03:40;;;;;;;19.75;6.82;;;5.80;99.90;;;;;;5020862;28;20053;-79
2022/11/27 03:06:31;;;;;;;17.73;6.25;;;5.80;99.90;;;;;;5053310;28;20049;-79
2022/11/27 03:09:31;;;;;;;17.23;6.93;;;5.80;99.90;;;;;;5054705;28;20435;-79
2022/11/27 03:12:18;;;;;;;24.92;8.05;;;5.80;99.90;;;;;;5036533;28;20571;-80
2022/11/27 03:15:05;;;;;;;22.55;7.65;;;5.80;99.90;;;;;;4995668;28;20395;-80
2022/11/27 03:18:05;;;;;;;26.92;7.25;;;5.80;99.90;;;;;;4982554;28;20490;-79
2022/11/27 03:21:03;;;;;;;16.20;6.05;;;5.90;99.90;;;;;;4994834;28;20049;-80
2022/11/27 03:23:49;;;;;;;19.70;6.32;;;5.80;99.90;;;;;;5014351;28;20573;-81
2022/11/27 03:26:36;;;;;;;22.08;7.15;;;5.90;99.90;;;;;;4997513;28;20054;-80
2022/11/27 03:29:34;;;;;;;16.63;5.78;;;5.90;99.90;;;;;;5010978;28;20046;-80
2022/11/27 03:32:21;;;;;;;17.80;6.00;;;5.90;99.90;;;;;;5014739;28;20173;-81
2022/11/27 03:35:09;;;;;;;19.05;7.18;;;5.90;99.90;;;;;;4993581;28;20120;-80
2022/11/27 03:37:56;;;;;;;26.58;7.25;;;5.90;99.90;;;;;;5012513;28;20108;-80
2022/11/27 03:41:05;;;;;;;18.05;7.40;;;5.90;99.90;;;;;;5014586;28;20125;-80
2022/11/27 03:44:05;;;;;;;25.23;8.65;;;5.90;99.90;;;;;;4995556;28;20097;-80
2022/11/27 03:47:03;;;;;;;19.98;7.28;;;5.90;99.90;;;;;;5012745;28;20054;-80
2022/11/27 03:50:13;;;;;;;18.50;7.07;;;5.90;99.90;;;;;;5011015;28;20066;-80
2022/11/27 03:53:10;;;;;;;18.50;7.05;;;5.80;99.90;;;;;;4979962;28;20474;-79
2022/11/27 03:56:21;;;;;;;16.10;6.25;;;5.80;99.90;;;;;;4994184;28;20041;-80
2022/11/27 03:59:19;;;;;;;20.42;7.68;;;5.90;99.90;;;;;;4995003;28;20078;-80
2022/11/27 04:02:05;;;;;;;19.30;7.53;;;5.90;99.90;;;;;;4995440;28;20065;-80
2022/11/27 04:04:51;;;;;;;17.50;6.93;;;5.80;99.90;;;;;;4982876;28;20415;-80
2022/11/27 04:07:38;;;;;;;23.88;8.85;;;5.90;99.90;;;;;;4993051;28;20174;-80
2022/11/27 04:10:24;;;;;;;12.13;7.18;;;5.80;99.90;;;;;;5014364;28;20111;-80
2022/11/27 04:13:10;;;;;;;29.17;8.15;;;5.80;99.90;;;;;;5010625;28;20041;-79
2022/11/27 04:16:00;;;;;;;18.73;7.40;;;5.80;99.90;;;;;;5020657;28;20508;-80
2022/11/27 04:18:49;;;;;;;20.05;6.93;;;5.80;99.90;;;;;;5036594;28;20042;-79
2022/11/27 04:21:35;;;;;;;24.50;7.30;;;5.80;99.90;;;;;;5040418;28;20095;-80
2022/11/27 04:24:21;;;;;;;18.48;7.72;;;5.90;99.90;;;;;;5018191;28;20572;-79
2022/11/27 04:27:07;;;;;;;20.67;7.53;;;5.90;99.90;;;;;;5038809;28;20505;-80
2022/11/27 04:29:54;;;;;;;23.83;7.13;;;5.90;99.90;;;;;;5017295;28;20052;-81
2022/11/27 04:32:40;;;;;;;21.15;7.20;;;5.90;99.90;;;;;;5018656;28;20057;-80
2022/11/27 04:35:26;;;;;;;21.40;7.05;;;5.90;99.90;;;;;;5037466;28;20052;-79
2022/11/27 04:38:13;;;;;;;16.60;6.57;;;5.90;99.90;;;;;;5038997;28;20062;-79
2022/11/27 04:40:59;;;;;;;16.48;6.70;;;5.90;99.90;;;;;;5016054;28;20057;-80
2022/11/27 04:43:45;;;;;;;17.15;6.82;;;6.00;99.90;;;;;;5021580;28;20056;-79
2022/11/27 04:46:32;;;;;;;29.48;8.48;;;5.90;99.90;;;;;;5033883;28;20453;-81
2022/11/27 04:49:18;;;;;;;17.90;7.40;;;6.00;99.90;;;;;;5012973;28;20054;-80
2022/11/27 04:52:04;;;;;;;20.40;6.95;;;6.00;99.90;;;;;;5030845;28;20069;-80
2022/11/27 04:54:51;;;;;;;19.15;6.15;;;6.00;99.90;;;;;;5031147;28;20049;-79
2022/11/27 04:57:37;;;;;;;15.35;5.88;;;6.00;99.90;;;;;;5013450;28;20057;-81
2022/11/27 05:00:23;;;;;;;21.38;8.68;;;6.00;99.90;;;;;;5030077;28;20060;-80
2022/11/27 05:03:09;;;;;;;23.05;7.10;;;6.00;99.90;;;;;;5015014;28;20120;-81
2022/11/27 05:05:56;;;;;;;24.73;7.15;;;6.00;99.90;;;;;;5013250;28;20410;-79
2022/11/27 05:08:43;;;;;;;16.50;6.10;;;6.10;99.90;;;;;;5030670;28;20050;-80
2022/11/27 05:11:30;;;;;;;17.60;6.28;;;6.00;99.90;;;;;;5029629;28;20050;-79
2022/11/27 05:14:16;;;;;;;18.45;7.10;;;6.10;99.90;;;;;;5013404;28;20058;-79
2022/11/27 05:17:03;;;;;;;21.10;6.07;;;6.10;99.90;;;;;;5029044;28;20049;-80
2022/11/27 05:19:50;;;;;;;14.35;5.35;;;6.10;99.90;;;;;;5029293;28;20068;-79
2022/11/27 05:22:36;;;;;;;19.00;6.38;;;6.10;99.90;;;;;;5012287;28;20053;-81
2022/11/27 05:25:22;;;;;;;18.08;7.10;;;6.00;99.90;;;;;;5029214;28;20042;-81
2022/11/27 05:28:09;;;;;;;23.02;6.07;;;6.10;99.90;;;;;;5030071;28;20459;-80
2022/11/27 05:30:55;;;;;;;17.65;5.60;;;6.10;99.90;;;;;;5012446;28;20068;-79
2022/11/27 05:33:41;;;;;;;12.15;4.80;;;6.10;99.90;;;;;;5028904;28;20088;-80
2022/11/27 05:36:28;;;;;;;17.25;5.40;;;6.10;99.90;;;;;;5011837;28;20061;-80
2022/11/27 05:39:14;;;;;;;16.20;4.68;;;6.10;99.90;;;;;;5033716;28;20057;-80
2022/11/27 05:42:01;;;;;;;16.10;5.00;;;6.10;99.90;;;;;;5016175;28;20049;-80
2022/11/27 05:44:47;;;;;;;14.60;5.85;;;6.10;99.90;;;;;;5015239;28;20057;-80
2022/11/27 05:47:33;;;;;;;15.65;5.07;;;6.20;99.90;;;;;;5033005;28;20059;-80
2022/11/27 05:50:19;;;;;;;15.70;5.13;;;6.20;99.90;;;;;;5032854;28;20045;-79
2022/11/27 05:53:05;;;;;;;11.43;4.32;;;6.20;99.90;;;;;;5018552;28;20041;-80
2022/11/27 05:55:52;;;;;;;12.68;4.50;;;6.20;99.90;;;;;;5032773;28;20050;-81
2022/11/27 05:58:39;;;;;;;17.05;4.55;;;6.20;99.90;;;;;;5015930;28;20456;-79
2022/11/27 06:01:25;;;;;;;13.40;4.57;;;6.20;99.90;;;;;;5015824;28;20049;-79
2022/11/27 06:04:11;;;;;;;12.85;4.72;;;6.20;99.90;;;;;;5016218;28;20046;-79
2022/11/27 06:06:58;;;;;;;19.27;4.80;;;6.20;99.90;;;;;;5001240;28;20136;-80
2022/11/27 06:09:44;;;;;;;20.60;5.32;;;6.10;99.90;;;;;;5014200;28;20049;-80
2022/11/27 06:12:31;;;;;;;13.93;5.07;;;6.20;99.90;;;;;;5014128;28;20050;-80
2022/11/27 06:15:17;;;;;;;15.10;4.68;;;6.20;99.90;;;;;;5001789;28;20053;-80
2022/11/27 06:18:03;;;;;;;16.88;4.72;;;6.20;99.90;;;;;;5031963;28;20056;-80
2022/11/27 06:20:50;;;;;;;11.23;4.60;;;6.20;99.90;;;;;;5031422;28;20084;-80
2022/11/27 06:23:37;;;;;;;17.80;4.68;;;6.10;99.90;;;;;;5015190;28;20565;-80
2022/11/27 06:26:28;;;;;;;10.68;4.75;;;6.20;99.90;;;;;;5002152;28;20080;-81
2022/11/27 06:29:15;;;;;;;15.20;5.07;;;6.10;99.90;;;;;;5033117;28;20103;-81
2022/11/27 06:32:01;;;;;;;15.43;5.03;;;6.10;99.90;;;;;;5015546;28;20057;-80
2022/11/27 06:34:47;;;;;;;10.60;5.32;;;6.10;99.90;;;;;;5013781;28;20521;-81
2022/11/27 06:37:33;;;;;;;11.93;4.13;;;6.10;99.90;;;;;;5000628;28;20089;-80
2022/11/27 06:40:19;;;;;;;13.75;5.05;;;6.10;99.90;;;;;;5014264;28;20061;-80
2022/11/27 06:43:05;;;;;;;14.18;4.70;;;6.20;99.90;;;;;;5032395;28;20057;-80
2022/11/27 06:45:56;;;;;;;14.05;4.85;;;6.10;99.90;;;;;;5031775;28;20049;-80
2022/11/27 06:48:45;;;;;;;13.55;5.30;;;6.20;99.90;;;;;;5015018;28;20140;-81
2022/11/27 06:51:31;;;;;;;15.05;4.82;;;6.20;99.90;;;;;;5033506;28;20105;-79
2022/11/27 06:54:17;;;;;;;13.13;4.22;;;6.20;99.90;;;;;;5016189;28;20088;-80
2022/11/27 06:57:04;;;;;;;14.30;4.00;;;6.20;99.90;;;;;;5015286;28;20111;-80
2022/11/27 06:59:50;;;;;;;12.88;5.28;;;6.20;99.90;;;;;;5035050;28;20057;-81
2022/11/27 07:02:37;;;;;;;9.82;4.15;;;6.10;99.90;;;;;;5032721;28;20053;-82
2022/11/27 07:05:24;;;;;;;10.80;3.92;;;6.20;99.90;;;;;;5031626;28;20049;-81
2022/11/27 07:08:10;;;;;;;13.85;4.35;;;6.20;99.90;;;;;;5032329;28;20479;-81
2022/11/27 07:11:09;;;;;;;14.27;4.15;;;6.20;99.90;;;;;;5030152;28;20140;-81
2022/11/27 07:13:58;;;;;;;14.45;4.28;;;6.20;99.90;;;;;;5017613;28;20053;-81
2022/11/27 07:16:44;;;;;;;13.07;4.10;;;6.20;99.90;;;;;;5051261;28;20048;-80
2022/11/27 07:19:31;;;;;;;14.43;4.53;;;6.20;99.90;;;;;;5051724;28;20139;-82
2022/11/27 07:22:17;;;;;;;9.35;4.45;;;6.20;99.90;;;;;;5051841;28;20122;-80
2022/11/27 07:25:03;;;;;;;12.55;4.43;;;6.20;99.90;;;;;;5050743;28;20111;-80
2022/11/27 07:27:50;;;;;;;11.75;4.43;;;6.20;99.90;;;;;;5051671;28;20053;-80
2022/11/27 07:30:36;;;;;;;13.73;3.90;;;6.10;99.90;;;;;;5033245;28;20409;-80
2022/11/27 07:33:22;;;;;;;18.77;5.15;;;6.10;99.90;;;;;;5034539;28;20045;-80
2022/11/27 07:36:19;;;;;;;15.07;5.18;;;6.10;99.90;;;;;;5052267;28;20070;-80
2022/11/27 07:39:05;;;;;;;14.30;4.10;;;6.10;99.90;;;;;;5021687;28;20045;-80
2022/11/27 07:41:51;;;;;;;12.90;4.80;;;6.10;99.90;;;;;;5035832;28;20086;-80
2022/11/27 07:44:37;;;;;;;9.43;3.88;;;6.10;99.90;;;;;;5050792;28;20053;-81
2022/11/27 07:47:23;;;;;;;14.40;4.55;;;6.10;99.90;;;;;;5050571;28;20040;-80
2022/11/27 07:50:14;;;;;;;17.20;4.20;;;6.10;99.90;;;;;;5053492;28;20052;-80
2022/11/27 07:53:03;;;;;;;14.82;4.38;;;6.10;99.90;;;;;;5053691;28;20048;-80
2022/11/27 07:55:50;;;;;;;15.10;4.25;;;6.20;99.90;;;;;;5037675;28;20087;-81
2022/11/27 07:58:38;;;;;;;23.33;4.93;;;6.20;99.90;;;;;;5054173;28;20076;-81
2022/11/27 08:01:24;;;;;;;13.07;3.90;;;6.10;99.90;;;;;;5054782;28;20053;-79
2022/11/27 08:04:11;;;;;;;12.88;4.40;;;6.20;99.90;;;;;;5041117;28;20131;-81
2022/11/27 08:06:57;;;;;;;12.65;4.07;;;6.20;99.90;;;;;;5039462;28;20052;-79
2022/11/27 08:09:43;;;;;;;14.90;3.58;;;6.20;99.90;;;;;;5022413;28;20397;-80
2022/11/27 08:12:32;;;;;;;13.23;4.13;;;6.20;99.90;;;;;;5020651;28;20568;-78
2022/11/27 08:15:19;;;;;;;11.10;3.92;;;6.20;99.90;;;;;;5037296;28;20099;-80
2022/11/27 08:18:05;;;;;;;13.55;4.00;;;6.20;99.90;;;;;;5035138;28;20056;-82
2022/11/27 08:20:51;;;;;;;12.93;4.55;;;6.20;99.90;;;;;;5052228;28;20053;-80
2022/11/27 08:23:37;;;;;;;12.75;3.65;;;6.20;99.90;;;;;;5052116;28;20049;-80
2022/11/27 08:26:27;;;;;;;10.70;4.22;;;6.20;99.90;;;;;;5041760;28;20114;-82
2022/11/27 08:29:13;;;;;;;12.93;3.90;;;6.20;99.90;;;;;;5038562;28;20060;-81
2022/11/27 08:32:00;;;;;;;11.25;4.55;;;6.20;99.90;;;;;;5035626;28;20087;-79
2022/11/27 08:34:46;;;;;;;13.88;4.30;;;6.20;99.90;;;;;;5050676;28;20059;-79
2022/11/27 08:37:32;;;;;;;13.77;5.00;;;6.20;99.90;;;;;;5050022;28;20053;-79
2022/11/27 08:40:18;;;;;;;13.13;4.47;;;6.20;99.90;;;;;;5032968;28;20455;-79
2022/11/27 08:43:04;;;;;;;11.38;3.95;;;6.20;99.90;;;;;;5050081;28;20060;-79
2022/11/27 08:45:51;;;;;;;16.98;4.90;;;6.20;99.90;;;;;;5032926;28;20052;-79
2022/11/27 08:48:38;;;;;;;12.32;5.05;;;6.20;99.90;;;;;;5050480;28;20046;-79
2022/11/27 08:51:26;;;;;;;16.90;5.53;;;6.20;99.90;;;;;;5050847;28;20059;-79
2022/11/27 08:54:12;;;;;;;14.25;4.90;;;6.20;99.90;;;;;;5032406;28;20049;-79
2022/11/27 08:56:58;;;;;;;16.13;5.57;;;6.20;99.90;;;;;;5031794;28;20053;-79
2022/11/27 08:59:44;;;;;;;14.88;5.47;;;6.20;99.90;;;;;;5050038;28;20488;-80
2022/11/27 09:02:31;;;;;;;15.88;5.47;;;6.10;99.90;;;;;;5050693;28;20413;-80
2022/11/27 09:05:17;;;;;;;12.07;4.80;;;6.20;99.90;;;;;;5050330;28;20060;-79
2022/11/27 09:08:04;;;;;;;10.82;5.15;;;6.10;99.90;;;;;;5051144;28;20405;-81
2022/11/27 09:10:50;;;;;;;14.27;4.68;;;6.10;99.90;;;;;;5032390;28;20067;-79
2022/11/27 09:13:38;;;;;;;21.90;7.32;;;6.10;99.90;;;;;;5053060;28;20060;-81
2022/11/27 09:16:25;;;;;;;15.30;5.70;;;6.10;99.90;;;;;;5035424;28;20105;-80
2022/11/27 09:19:11;;;;;;;17.13;5.65;;;6.10;99.90;;;;;;5036248;28;20053;-80
2022/11/27 09:21:58;;;;;;;12.25;5.40;;;6.10;99.90;;;;;;5054011;28;20483;-81
2022/11/27 09:24:45;;;;;;;15.13;5.38;;;6.10;99.90;;;;;;5036276;28;20333;-81
2022/11/27 09:27:31;;;;;;;17.55;6.15;;;6.10;99.90;;;;;;5022279;28;20091;-81
2022/11/27 09:30:17;;;;;;;15.63;5.95;;;6.10;99.90;;;;;;5036551;28;20056;-80
2022/11/27 09:33:03;;;;;;;14.27;5.50;;;6.10;99.90;;;;;;5054134;28;20123;-81
2022/11/27 09:35:49;;;;;;;20.25;6.28;;;6.10;99.90;;;;;;5036929;28;20064;-81
2022/11/27 09:38:36;;;;;;;17.17;6.13;;;6.10;99.90;;;;;;5036501;28;20052;-83
2022/11/27 09:41:43;;;;;;;23.05;5.72;;;6.10;99.90;;;;;;5036196;28;20049;-81
2022/11/27 09:44:48;;;;;;;13.35;5.70;;;6.10;99.90;;;;;;5052953;28;20148;-80
2022/11/27 09:47:40;;;;;;;16.17;7.10;;;6.10;99.90;;;;;;5053322;28;20045;-80
2022/11/27 09:50:35;;;;;;;16.73;6.13;;;6.10;99.90;;;;;;5036790;28;20049;-80
2022/11/27 09:53:31;;;;;;;14.70;5.93;;;6.10;99.90;;;;;;5052740;28;20507;-79
2022/11/27 09:56:19;;;;;;;14.80;6.50;;;6.10;99.90;;;;;;5053981;28;20045;-81
2022/11/27 09:59:15;;;;;;;19.70;6.40;;;6.20;99.90;;;;;;5034944;28;20056;-82
2022/11/27 10:02:01;;;;;;;14.90;6.63;;;6.20;99.90;;;;;;5036223;28;20405;-81
2022/11/27 10:04:47;;;;;;;15.45;6.30;;;6.20;99.90;;;;;;5052650;28;20053;-81
2022/11/27 10:07:52;;;;;;;18.83;6.60;;;6.20;99.90;;;;;;5035641;28;20049;-81
2022/11/27 10:10:57;;;;;;;15.00;6.45;;;6.20;99.90;;;;;;5035795;28;20052;-80
2022/11/27 10:14:09;;;;;;;27.73;9.75;;;6.20;99.90;;;;;;5034685;28;20136;-81
2022/11/27 10:17:08;;;;;;;13.52;6.13;;;6.10;99.90;;;;;;5053574;28;20045;-81
2022/11/27 10:20:18;;;;;;;15.35;7.63;;;6.20;99.90;;;;;;5052365;28;20059;-80
2022/11/27 10:23:13;;;;;;;18.95;7.25;;;6.10;99.90;;;;;;5053343;28;20053;-82
2022/11/27 10:26:14;;;;;;;16.40;7.00;;;6.20;99.90;;;;;;5034731;28;20052;-80
2022/11/27 10:29:22;;;;;;;24.60;8.02;;;6.20;99.90;;;;;;5033917;28;20473;-81
2022/11/27 10:32:30;;;;;;;16.13;7.00;;;6.10;99.90;;;;;;5034860;28;20053;-81
2022/11/27 10:35:22;;;;;;;15.70;6.90;;;6.10;99.90;;;;;;5052448;28;20099;-81
2022/11/27 10:38:16;;;;;;;18.27;7.13;;;6.10;99.90;;;;;;5051113;28;20049;-82
2022/11/27 10:41:08;;;;;;;17.55;6.40;;;6.10;99.90;;;;;;5052439;28;20053;-81
2022/11/27 10:43:56;;;;;;;22.38;7.57;;;6.10;99.90;;;;;;5051796;28;20099;-80
2022/11/27 10:46:43;;;;;;;23.33;6.80;;;6.10;99.90;;;;;;5035394;28;20063;-81
2022/11/27 10:49:30;;;;;;;15.95;6.70;;;6.10;99.90;;;;;;5036365;28;20057;-81
2022/11/27 10:52:18;;;;;;;18.73;7.18;;;6.10;99.90;;;;;;5053810;28;20080;-81
2022/11/27 10:55:20;;;;;;;21.20;7.10;;;6.10;99.90;;;;;;5052900;28;20045;-80
2022/11/27 10:58:15;;;;;;;16.00;7.03;;;6.20;99.90;;;;;;5052017;28;20094;-80
2022/11/27 11:01:21;;;;;;;17.67;7.30;;;6.20;99.90;;;;;;5033389;28;20060;-80
2022/11/27 11:04:09;;;;;;;19.08;7.43;;;6.20;99.90;;;;;;5053936;28;20088;-81
2022/11/27 11:06:56;;;;;;;20.40;8.32;;;6.20;99.90;;;;;;5051837;28;20132;-81
2022/11/27 11:09:47;;;;;;;16.17;8.10;;;6.20;99.90;;;;;;5034161;28;20087;-81
2022/11/27 11:12:33;;;;;;;16.00;7.95;;;6.20;99.90;;;;;;5033830;28;20056;-80
2022/11/27 11:15:19;;;;;;;20.27;8.63;;;6.20;99.90;;;;;;5034215;28;20100;-82
2022/11/27 11:18:16;;;;;;;21.92;9.45;;;6.20;99.90;;;;;;5051040;28;20060;-80
2022/11/27 11:21:07;;;;;;;19.92;7.75;;;6.20;99.90;;;;;;5051999;28;20061;-82
2022/11/27 11:24:17;;;;;;;20.90;7.32;;;6.20;99.90;;;;;;5038089;28;20048;-81
2022/11/27 11:27:11;;;;;;;18.70;8.25;;;6.30;99.90;;;;;;5051831;28;20060;-80
2022/11/27 11:30:01;;;;;;;20.75;8.63;;;6.30;99.90;;;;;;5033350;28;20076;-81
2022/11/27 11:32:48;;;;;;;28.55;8.35;;;6.30;99.90;;;;;;5036966;28;20063;-81
2022/11/27 11:35:35;;;;;;;18.25;8.40;;;6.30;99.90;;;;;;5052442;28;20041;-81
2022/11/27 11:38:28;;;;;;;20.58;8.32;;;6.30;99.90;;;;;;5051348;28;20084;-81
2022/11/27 11:41:16;;;;;;;20.63;8.60;;;6.40;99.90;;;;;;5052523;28;20048;-82
2022/11/27 11:44:03;;;;;;;19.23;8.60;;;6.40;99.90;;;;;;5052142;28;20051;-81
2022/11/27 11:46:53;;;;;;;18.35;8.13;;;6.40;99.90;;;;;;5050692;28;20072;-80
2022/11/27 11:49:39;;;;;;;17.92;7.80;;;6.40;99.90;;;;;;5051316;28;20091;-81
2022/11/27 11:52:44;;;;;;;19.27;8.57;;;6.40;99.90;;;;;;5052196;28;20163;-81
2022/11/27 11:55:35;;;;;;;16.23;7.63;;;6.50;99.90;;;;;;5032732;28;20107;-80
2022/11/27 11:58:24;;;;;;;15.82;8.02;;;6.50;99.90;;;;;;5050757;28;20048;-80
2022/11/27 12:01:22;;;;;;;21.40;9.45;;;6.50;99.90;;;;;;5033729;28;20057;-82
2022/11/27 12:04:20;;;;;;;37.85;10.75;;;6.50;99.90;;;;;;5032834;28;20053;-80
2022/11/27 12:07:34;;;;;;;19.77;8.40;;;6.40;99.90;;;;;;5034741;28;20053;-81
2022/11/27 12:10:26;;;;;;;20.95;9.00;;;6.40;99.90;;;;;;5050631;28;20055;-79
2022/11/27 12:13:37;;;;;;;23.13;9.13;;;6.40;99.90;;;;;;5050397;28;20060;-81
2022/11/27 12:16:54;;;;;;;19.90;9.40;;;6.50;99.90;;;;;;5033953;28;20079;-80
2022/11/27 12:20:04;;;;;;;17.45;8.48;;;6.50;99.90;;;;;;5023316;28;20048;-80
2022/11/27 12:22:59;;;;;;;17.23;8.48;;;6.50;99.90;;;;;;5052405;28;20048;-80
2022/11/27 12:26:20;;;;;;;24.85;9.50;;;6.50;99.90;;;;;;5050138;28;20052;-81
2022/11/27 12:29:25;;;;;;;19.58;8.35;;;6.50;99.90;;;;;;5049899;28;20049;-80
2022/11/27 12:32:45;;;;;;;22.80;8.68;;;6.60;99.90;;;;;;5050302;28;20064;-80
2022/11/27 12:35:33;;;;;;;21.27;8.55;;;6.60;99.90;;;;;;5050988;28;20049;-81
2022/11/27 12:38:40;;;;;;;28.98;10.45;;;6.70;99.90;;;;;;5031971;28;20107;-82
2022/11/27 12:41:46;;;;;;;17.05;8.00;;;6.70;99.90;;;;;;5032546;28;20110;-81
2022/11/27 12:44:51;;;;;;;19.80;8.32;;;6.70;99.90;;;;;;5032125;28;20084;-81
2022/11/27 12:47:43;;;;;;;17.42;8.43;;;6.70;99.90;;;;;;5049941;28;20095;-81
2022/11/27 12:50:51;;;;;;;16.10;8.07;;;6.70;99.90;;;;;;5051603;28;20052;-81
2022/11/27 12:53:47;;;;;;;19.42;8.90;;;6.70;99.90;;;;;;5050545;28;20049;-83
2022/11/27 12:56:44;;;;;;;18.67;8.32;;;6.70;99.90;;;;;;5033140;28;20048;-80
2022/11/27 12:59:32;;;;;;;16.73;8.57;;;6.70;99.90;;;;;;5034705;28;20124;-81
2022/11/27 13:02:34;;;;;;;19.27;7.97;;;6.70;99.90;;;;;;5031591;28;20080;-81
2022/11/27 13:05:25;;;;;;;20.65;8.48;;;6.70;99.90;;;;;;5049179;28;20497;-81
2022/11/27 13:08:27;;;;;;;19.33;8.45;;;6.70;99.90;;;;;;5049901;28;20145;-80
2022/11/27 13:11:17;;;;;;;21.13;8.57;;;6.70;99.90;;;;;;5031541;28;20057;-81
2022/11/27 13:14:20;;;;;;;16.35;7.55;;;6.70;99.90;;;;;;5049884;28;20052;-79
2022/11/27 13:17:14;;;;;;;16.15;7.85;;;6.80;99.90;;;;;;5049850;28;20060;-81
2022/11/27 13:20:02;;;;;;;22.25;8.45;;;6.80;99.90;;;;;;5031554;28;20053;-79
2022/11/27 13:22:49;;;;;;;18.55;8.18;;;6.80;99.90;;;;;;5050613;28;20053;-80
2022/11/27 13:25:44;;;;;;;17.30;7.28;;;6.70;99.90;;;;;;5019415;28;20161;-80
2022/11/27 13:28:43;;;;;;;18.77;8.97;;;6.70;99.90;;;;;;5049915;28;20485;-79
2022/11/27 13:31:36;;;;;;;16.63;8.05;;;6.70;99.90;;;;;;5050373;28;20052;-79
2022/11/27 13:34:28;;;;;;;17.20;7.63;;;6.70;99.90;;;;;;5032475;28;20160;-80
2022/11/27 13:37:33;;;;;;;21.75;9.55;;;6.70;99.90;;;;;;5031799;28;20096;-80
2022/11/27 13:40:22;;;;;;;18.95;7.85;;;6.70;99.90;;;;;;5051176;28;20052;-80
2022/11/27 13:43:31;;;;;;;20.98;7.53;;;6.70;99.90;;;;;;5032040;28;20083;-80
2022/11/27 13:46:23;;;;;;;17.05;7.70;;;6.70;99.90;;;;;;5049649;28;20064;-80
2022/11/27 13:49:26;;;;;;;16.58;7.00;;;6.70;99.90;;;;;;5049443;28;20513;-79
2022/11/27 13:52:21;;;;;;;13.90;6.53;;;6.60;99.90;;;;;;5018747;28;20060;-80
2022/11/27 13:55:10;;;;;;;21.63;8.02;;;6.60;99.90;;;;;;5050183;28;20061;-81
2022/11/27 13:57:58;;;;;;;20.20;8.13;;;6.60;99.90;;;;;;5050582;28;20049;-81
2022/11/27 14:00:45;;;;;;;22.33;8.35;;;6.60;99.90;;;;;;5053140;28;20053;-82
2022/11/27 14:03:31;;;;;;;16.38;7.63;;;6.60;99.90;;;;;;5052275;28;20041;-80
2022/11/27 14:06:25;;;;;;;19.20;8.15;;;6.60;99.90;;;;;;5034427;28;20524;-81
2022/11/27 14:09:12;;;;;;;17.98;8.10;;;6.60;99.90;;;;;;5052590;28;20415;-80
2022/11/27 14:11:58;;;;;;;19.98;7.80;;;6.60;99.90;;;;;;5052709;28;20134;-80
2022/11/27 14:15:00;;;;;;;14.90;7.43;;;6.60;99.90;;;;;;5034460;28;20059;-80
2022/11/27 14:17:50;;;;;;;17.02;7.60;;;6.60;99.90;;;;;;5039014;28;20085;-81
2022/11/27 14:20:52;;;;;;;16.95;7.55;;;6.50;99.90;;;;;;5038409;28;20126;-80
2022/11/27 14:23:49;;;;;;;16.52;7.65;;;6.50;99.90;;;;;;5021989;28;20068;-82
2022/11/27 14:26:39;;;;;;;17.42;8.02;;;6.50;99.90;;;;;;5034037;28;20079;-81
2022/11/27 14:29:28;;;;;;;17.25;7.63;;;6.50;99.90;;;;;;5052737;28;20049;-81
2022/11/27 14:32:16;;;;;;;19.23;7.68;;;6.50;99.90;;;;;;5034829;28;20060;-81
2022/11/27 14:35:03;;;;;;;17.02;7.70;;;6.50;99.90;;;;;;5052752;28;20076;-81
2022/11/27 14:37:49;;;;;;;27.25;8.68;;;6.50;99.90;;;;;;5053000;28;20131;-81
2022/11/27 14:40:36;;;;;;;15.40;7.35;;;6.50;99.90;;;;;;5052522;28;20049;-81
2022/11/27 14:43:27;;;;;;;16.02;7.38;;;6.50;99.90;;;;;;5052361;28;20053;-81
2022/11/27 14:46:19;;;;;;;18.65;8.43;;;6.50;99.90;;;;;;5034284;28;20130;-81
2022/11/27 14:49:05;;;;;;;22.15;8.35;;;6.50;99.90;;;;;;5037754;28;20044;-82
2022/11/27 14:51:52;;;;;;;17.05;7.43;;;6.40;99.90;;;;;;5051627;28;20190;-81
2022/11/27 14:54:40;;;;;;;14.38;7.65;;;6.40;99.90;;;;;;5052181;28;20115;-81
2022/11/27 14:57:27;;;;;;;21.30;9.85;;;6.40;99.90;;;;;;5038435;28;20045;-81
2022/11/27 15:00:30;;;;;;;13.30;7.72;;;6.40;99.90;;;;;;5052118;28;20512;-81
2022/11/27 15:03:20;;;;;;;14.73;7.38;;;6.40;99.90;;;;;;5019809;28;20045;-82
2022/11/27 15:06:06;;;;;;;17.15;8.23;;;6.40;99.90;;;;;;5051616;28;20047;-81
2022/11/27 15:08:53;;;;;;;18.85;8.30;;;6.40;99.90;;;;;;5033325;28;20095;-80
2022/11/27 15:11:40;;;;;;;14.95;7.88;;;6.40;99.90;;;;;;5052947;28;20052;-80
2022/11/27 15:14:27;;;;;;;23.70;8.30;;;6.40;99.90;;;;;;5051601;28;20045;-80
2022/11/27 15:17:23;;;;;;;14.50;7.32;;;6.40;99.90;;;;;;5038101;28;20056;-81
2022/11/27 15:20:24;;;;;;;12.98;7.70;;;6.40;99.90;;;;;;5034324;28;20094;-81
2022/11/27 15:23:20;;;;;;;16.35;7.35;;;6.30;99.90;;;;;;5051475;28;20187;-82
2022/11/27 15:26:11;;;;;;;18.83;7.90;;;6.40;99.90;;;;;;5052388;28;20049;-81
2022/11/27 15:28:58;;;;;;;22.08;8.75;;;6.30;99.90;;;;;;5033950;28;20048;-82
2022/11/27 15:31:50;;;;;;;17.25;7.88;;;6.30;99.90;;;;;;5033540;28;20049;-81
2022/11/27 15:34:36;;;;;;;14.52;6.70;;;6.30;99.90;;;;;;5033744;28;20132;-83
2022/11/27 15:37:27;;;;;;;15.02;7.80;;;6.30;99.90;;;;;;5033960;28;20558;-81
2022/11/27 15:40:32;;;;;;;17.73;7.88;;;6.30;99.90;;;;;;5050986;28;20060;-81
2022/11/27 15:43:18;;;;;;;22.45;8.63;;;6.30;99.90;;;;;;5052750;28;20368;-82
2022/11/27 15:46:07;;;;;;;14.82;7.53;;;6.30;99.90;;;;;;5033401;28;20084;-81
2022/11/27 15:48:53;;;;;;;20.27;8.98;;;6.30;99.90;;;;;;5036268;28;20077;-81
2022/11/27 15:51:40;;;;;;;19.00;8.65;;;6.30;99.90;;;;;;5051523;28;20084;-82
2022/11/27 15:54:26;;;;;;;17.23;8.25;;;6.30;99.90;;;;;;5051421;28;20150;-80
2022/11/27 15:57:13;;;;;;;14.80;7.95;;;6.20;99.90;;;;;;5050688;28;20090;-79
2022/11/27 15:59:59;;;;;;;22.30;9.25;;;6.20;99.90;;;;;;5032165;28;21013;-80
2022/11/27 16:02:48;;;;;;;17.20;8.35;;;6.20;99.90;;;;;;5033523;28;20530;-80
2022/11/27 16:05:34;;;;;;;17.35;8.20;;;6.20;99.90;;;;;;5020487;28;20087;-82
2022/11/27 16:08:20;;;;;;;17.52;8.45;;;6.20;99.90;;;;;;5031890;28;20114;-81
2022/11/27 16:11:13;;;;;;;21.17;9.68;;;6.20;99.90;;;;;;5050130;28;20085;-79
2022/11/27 16:14:02;;;;;;;21.90;8.68;;;6.20;99.90;;;;;;5033918;28;20048;-80
2022/11/27 16:16:48;;;;;;;19.73;9.43;;;6.20;99.90;;;;;;5036613;28;20057;-80
2022/11/27 16:19:34;;;;;;;23.85;9.40;;;6.20;99.90;;;;;;5049896;28;20110;-81
2022/11/27 16:22:21;;;;;;;20.98;10.23;;;6.20;99.90;;;;;;5049755;28;20055;-81
2022/11/27 16:25:07;;;;;;;19.23;10.07;;;6.20;99.90;;;;;;5050129;28;20124;-80
2022/11/27 16:27:53;;;;;;;14.90;9.18;;;6.20;99.90;;;;;;5050322;28;20045;-82
2022/11/27 16:30:40;;;;;;;19.55;9.70;;;6.20;99.90;;;;;;5051223;28;20064;-80
2022/11/27 16:33:30;;;;;;;18.38;9.27;;;6.20;99.90;;;;;;5033464;28;20181;-81
2022/11/27 16:36:18;;;;;;;19.27;9.20;;;6.10;99.90;;;;;;5033896;28;20053;-80
2022/11/27 16:39:05;;;;;;;19.20;9.50;;;6.20;99.90;;;;;;5050689;28;20052;-81
2022/11/27 16:41:51;;;;;;;18.38;9.52;;;6.20;99.90;;;;;;5036198;28;20041;-81
2022/11/27 16:44:37;;;;;;;20.55;9.85;;;6.10;99.90;;;;;;5019164;28;20493;-81
2022/11/27 16:47:24;;;;;;;19.02;8.48;;;6.10;99.90;;;;;;5032922;28;20045;-80
2022/11/27 16:50:11;;;;;;;20.00;10.45;;;6.10;99.90;;;;;;5049537;28;20045;-82
2022/11/27 16:52:57;;;;;;;19.27;10.55;;;6.10;99.90;;;;;;5050936;28;20126;-81
2022/11/27 16:55:44;;;;;;;16.58;9.07;;;6.10;99.90;;;;;;5050204;28;20052;-82
2022/11/27 16:58:35;;;;;;;22.10;10.27;;;6.10;99.90;;;;;;5050211;28;20055;-81
2022/11/27 17:01:29;;;;;;;17.20;9.45;;;6.10;99.90;;;;;;5050549;28;20051;-80